Time;durP1;ratioP1;P1;durP2;ratioP2;P2;SDS_P1;SDS_P2;PMS_P1;PMS_P2;Temp;Humidity;BMP_temperature;BMP_pressure;BME280_temperature;BME280_humidity;BME280_pressure;Samples;Min_cycle;Max_cycle;Signal;HPM_P1;HPM_P2
2021/03/07 00:02:03;;;;;;;5.85;4.28;;;;;;;6.76;47.19;101751.03;4947933;28;20040;-67
2021/03/07 00:04:30;;;;;;;5.95;4.45;;;;;;;6.70;47.94;101753.69;4946586;28;20055;-70
2021/03/07 00:06:56;;;;;;;4.22;3.50;;;;;;;6.77;47.49;101755.38;4947616;28;20494;-69
2021/03/07 00:09:23;;;;;;;5.68;3.72;;;;;;;6.67;48.61;101749.41;4947502;28;20051;-71
2021/03/07 00:11:49;;;;;;;5.13;3.75;;;;;;;6.64;48.92;101754.59;4946521;28;20498;-71
2021/03/07 00:14:16;;;;;;;6.93;4.82;;;;;;;6.44;51.39;101759.09;4948647;29;21054;-70
2021/03/07 00:16:42;;;;;;;12.88;4.28;;;;;;;6.39;51.12;101755.69;4949709;28;20043;-70
2021/03/07 00:19:09;;;;;;;8.57;4.55;;;;;;;6.38;52.07;101756.56;4953007;28;20047;-70
2021/03/07 00:21:36;;;;;;;5.30;3.90;;;;;;;6.31;51.31;101750.59;4948958;28;20052;-70
2021/03/07 00:24:03;;;;;;;7.00;5.13;;;;;;;6.34;51.54;101745.41;4950352;28;20384;-69
2021/03/07 00:26:30;;;;;;;7.32;5.20;;;;;;;6.30;51.65;101748.88;4946872;28;20086;-70
2021/03/07 00:28:56;;;;;;;5.28;4.63;;;;;;;6.31;51.74;101742.81;4947079;28;20050;-67
2021/03/07 00:31:23;;;;;;;7.97;5.28;;;;;;;6.29;52.40;101742.84;4946841;28;20044;-67
2021/03/07 00:33:50;;;;;;;4.63;4.15;;;;;;;6.23;52.60;101739.44;4945553;29;20083;-68
2021/03/07 00:36:17;;;;;;;5.50;3.85;;;;;;;6.18;52.14;101739.50;4961802;28;20506;-68
2021/03/07 00:38:43;;;;;;;11.23;4.65;;;;;;;6.12;53.00;101734.34;4947259;28;20057;-67
2021/03/07 00:41:10;;;;;;;9.63;4.07;;;;;;;6.10;53.02;101736.09;4946535;28;20047;-67
2021/03/07 00:43:36;;;;;;;4.32;3.63;;;;;;;6.19;51.80;101736.03;4946853;28;20047;-67
2021/03/07 00:46:05;;;;;;;7.60;4.88;;;;;;;6.14;51.26;101732.63;4947435;28;20105;-67
2021/03/07 00:48:31;;;;;;;6.60;3.20;;;;;;;6.16;50.64;101732.59;4948323;28;20074;-67
2021/03/07 00:50:58;;;;;;;19.80;5.20;;;;;;;6.15;50.92;101723.13;4960042;28;20047;-67
2021/03/07 00:53:25;;;;;;;5.55;5.05;;;;;;;6.07;52.56;101728.34;4946648;28;20039;-67
2021/03/07 00:55:52;;;;;;;4.82;4.28;;;;;;;5.97;53.22;101726.72;4947076;28;20043;-67
2021/03/07 00:58:19;;;;;;;9.90;4.50;;;;;;;6.02;53.33;101722.38;4948753;28;20454;-67
2021/03/07 01:00:47;;;;;;;11.00;5.78;;;;;;;6.00;53.42;101716.31;4947119;28;20490;-67
2021/03/07 01:03:14;;;;;;;9.70;4.50;;;;;;;5.98;53.80;101716.34;4945406;28;20043;-67
2021/03/07 01:05:41;;;;;;;5.85;4.38;;;;;;;6.03;53.53;101718.91;4946547;28;20409;-67
2021/03/07 01:08:08;;;;;;;5.10;4.13;;;;;;;6.04;53.24;101716.28;4947281;28;20043;-67
2021/03/07 01:10:40;;;;;;;7.28;4.22;;;;;;;6.06;53.43;101713.69;4946347;28;20070;-67
2021/03/07 01:13:14;;;;;;;9.45;5.15;;;;;;;6.13;53.61;101709.34;4945980;28;20047;-67
2021/03/07 01:15:41;;;;;;;5.97;4.47;;;;;;;6.05;53.22;101709.38;4945744;28;20563;-67
2021/03/07 01:18:32;;;;;;;6.88;4.10;;;;;;;5.91;53.69;101714.69;4946490;28;20046;-67
2021/03/07 01:21:17;;;;;;;7.25;4.57;;;;;;;5.84;54.11;101712.09;4948094;28;20494;-67
2021/03/07 01:23:43;;;;;;;8.25;5.05;;;;;;;5.84;54.06;101697.44;4948573;28;20035;-67
2021/03/07 01:26:10;;;;;;;5.78;4.15;;;;;;;5.81;54.08;101691.44;4951416;28;20054;-67
2021/03/07 01:28:36;;;;;;;9.40;5.30;;;;;;;5.75;54.72;101688.03;4951213;28;20043;-67
2021/03/07 01:31:03;;;;;;;14.07;6.00;;;;;;;5.68;54.56;101688.91;4950426;28;20521;-67
2021/03/07 01:33:30;;;;;;;7.18;6.13;;;;;;;5.69;54.62;101693.22;4950302;28;20047;-67
2021/03/07 01:36:02;;;;;;;12.70;6.43;;;;;;;5.66;54.67;101682.91;4950366;28;20679;-67
2021/03/07 01:38:31;;;;;;;7.80;5.30;;;;;;;5.70;54.04;101679.44;4950911;28;20050;-66
2021/03/07 01:40:59;;;;;;;7.47;4.90;;;;;;;5.81;54.30;101676.75;4950327;28;20048;-65
2021/03/07 01:43:26;;;;;;;8.30;7.38;;;;;;;5.70;54.64;101674.25;4950200;28;20367;-64
2021/03/07 01:45:54;;;;;;;9.18;6.57;;;;;;;5.68;55.04;101670.78;4950230;28;20051;-67
2021/03/07 01:48:21;;;;;;;5.70;4.55;;;;;;;5.69;55.78;101662.16;4950379;28;20051;-67
2021/03/07 01:50:51;;;;;;;6.40;5.53;;;;;;;5.77;55.60;101662.13;4950480;28;20039;-67
2021/03/07 01:53:18;;;;;;;7.20;6.03;;;;;;;5.70;55.39;101653.56;4949559;28;20043;-67
2021/03/07 01:55:46;;;;;;;10.00;4.90;;;;;;;5.69;55.79;101651.81;4950353;28;20043;-67
2021/03/07 01:58:21;;;;;;;10.48;5.50;;;;;;;5.71;56.36;101654.41;4952786;28;20565;-67
2021/03/07 02:00:47;;;;;;;11.57;4.43;;;;;;;5.58;57.26;101638.09;4953030;28;20043;-67
2021/03/07 02:03:14;;;;;;;6.45;5.13;;;;;;;5.63;56.66;101638.94;4952650;28;20043;-67
2021/03/07 02:05:42;;;;;;;6.22;4.95;;;;;;;5.60;55.90;101631.22;4950268;28;20046;-67
2021/03/07 02:08:09;;;;;;;7.60;5.53;;;;;;;5.45;56.13;101637.34;4950422;28;20398;-65
2021/03/07 02:10:48;;;;;;;12.07;6.20;;;;;;;5.60;56.71;101626.03;4949466;28;20047;-67
2021/03/07 02:13:21;;;;;;;7.60;5.13;;;;;;;5.48;57.01;101629.53;4948890;29;20050;-65
2021/03/07 02:15:52;;;;;;;8.00;5.75;;;;;;;5.51;56.09;101623.50;4949266;28;20133;-65
2021/03/07 02:18:20;;;;;;;6.30;5.55;;;;;;;5.49;56.39;101620.09;4948480;28;20055;-66
2021/03/07 02:20:54;;;;;;;11.13;5.72;;;;;;;5.36;54.47;101618.44;4949156;28;20142;-67
2021/03/07 02:23:22;;;;;;;;;;;;;;;5.44;55.49;101614.09;4949894;28;20464;-66
2021/03/07 02:25:51;;;;;;;6.50;5.45;;;;;;;5.52;54.49;101600.22;4949784;28;19928;-67
2021/03/07 02:28:19;;;;;;;12.40;5.38;;;;;;;5.49;53.97;101607.16;4962645;28;20071;-67
2021/03/07 02:30:46;;;;;;;6.85;5.53;;;;;;;5.55;54.50;101596.75;4948787;28;20922;-66
2021/03/07 02:33:32;;;;;;;7.28;5.32;;;;;;;5.40;55.11;101596.88;4948988;28;20086;-67
2021/03/07 02:35:58;;;;;;;7.53;5.60;;;;;;;5.40;55.31;101596.88;4949746;28;20521;-66
2021/03/07 02:38:26;;;;;;;11.38;5.95;;;;;;;5.37;55.84;101596.88;4950172;28;20039;-67
2021/03/07 02:40:58;;;;;;;9.13;5.78;;;;;;;5.30;56.09;101592.63;4949694;28;20058;-67
2021/03/07 02:43:28;;;;;;;14.73;7.10;;;;;;;5.33;55.80;101595.19;4950168;28;20043;-67
2021/03/07 02:45:57;;;;;;;8.50;5.82;;;;;;;5.29;56.01;101589.19;4951180;28;20050;-67
2021/03/07 02:48:27;;;;;;;8.68;5.90;;;;;;;5.40;56.34;101592.53;4949891;28;20042;-67
2021/03/07 02:51:01;;;;;;;10.18;5.78;;;;;;;5.41;56.32;101588.22;4949235;28;20067;-67
2021/03/07 02:53:32;;;;;;;16.43;5.67;;;;;;;5.33;55.97;101590.03;4948576;28;20129;-65
2021/03/07 02:56:27;;;;;;;13.07;6.18;;;;;;;5.30;56.80;101587.44;4948719;29;20486;-66
2021/03/07 02:58:59;;;;;;;;;;;;;;;5.30;56.60;101590.03;4948703;29;20074;-67
2021/03/07 03:01:28;;;;;;;8.93;6.85;;;;;;;5.33;56.82;101579.69;4948842;28;19929;-66
2021/03/07 03:03:55;;;;;;;11.20;6.10;;;;;;;5.38;55.36;101585.66;4948195;28;20082;-67
2021/03/07 03:06:22;;;;;;;7.90;6.20;;;;;;;5.13;56.52;101579.81;4948785;28;20048;-66
2021/03/07 03:08:55;;;;;;;9.98;5.82;;;;;;;5.10;56.68;101570.34;4948846;28;20429;-67
2021/03/07 03:11:25;;;;;;;10.55;5.85;;;;;;;5.07;56.67;101572.09;4949078;28;21948;-68
2021/03/07 03:13:52;;;;;;;10.73;5.93;;;;;;;5.07;56.85;101572.09;4949118;28;20055;-67
2021/03/07 03:16:27;;;;;;;7.60;6.35;;;;;;;5.10;57.00;101570.34;4948508;28;20035;-67
2021/03/07 03:18:55;;;;;;;10.18;6.20;;;;;;;5.08;56.56;101558.31;4949467;28;20517;-67
2021/03/07 03:21:21;;;;;;;8.07;5.82;;;;;;;5.02;57.31;101561.78;4949394;28;20043;-67
2021/03/07 03:23:49;;;;;;;9.82;5.38;;;;;;;5.05;57.22;101561.75;4949868;28;20050;-67
2021/03/07 03:26:19;;;;;;;10.35;6.57;;;;;;;5.09;57.12;101565.19;4948207;28;20046;-67
2021/03/07 03:28:48;;;;;;;12.25;6.72;;;;;;;4.97;57.22;101560.94;4949569;28;20047;-67
2021/03/07 03:31:14;;;;;;;12.50;8.13;;;;;;;5.09;56.42;101555.69;4948437;28;20054;-67
2021/03/07 03:33:41;;;;;;;12.48;8.25;;;;;;;5.22;56.32;101557.34;4948079;28;20126;-68
2021/03/07 03:36:07;;;;;;;8.45;7.10;;;;;;;5.16;57.20;101559.09;4948009;28;20054;-68
2021/03/07 03:38:45;;;;;;;14.70;8.38;;;;;;;5.04;57.60;101557.47;4947454;28;20046;-67
2021/03/07 03:41:13;;;;;;;9.32;7.90;;;;;;;5.09;57.66;101558.28;4948967;28;20046;-68
2021/03/07 03:43:56;;;;;;;10.93;8.15;;;;;;;4.98;57.95;101560.06;4948066;29;20039;-68
2021/03/07 03:46:25;;;;;;;12.88;8.05;;;;;;;4.69;58.60;101555.94;4947663;28;20043;-67
2021/03/07 03:48:57;;;;;;;9.38;8.43;;;;;;;4.84;58.42;101557.56;4947398;28;20102;-67
2021/03/07 03:51:25;;;;;;;11.85;8.90;;;;;;;4.98;58.06;101552.31;4947134;28;20073;-67
2021/03/07 03:53:53;;;;;;;10.65;7.65;;;;;;;4.92;58.01;101547.19;4960733;28;20046;-67
2021/03/07 03:56:23;;;;;;;11.32;8.93;;;;;;;4.98;58.08;101547.16;4947902;28;20074;-67
2021/03/07 03:58:51;;;;;;;11.30;8.60;;;;;;;4.96;58.28;101551.50;4947507;29;20425;-67
2021/03/07 04:01:19;;;;;;;10.52;7.78;;;;;;;4.87;58.66;101554.13;4950335;28;20044;-67
2021/03/07 04:03:54;;;;;;;10.20;9.10;;;;;;;4.90;58.90;101551.50;4951656;29;20043;-67
2021/03/07 04:06:25;;;;;;;9.48;8.43;;;;;;;4.86;59.40;101555.00;4955006;28;20413;-67
2021/03/07 04:08:53;;;;;;;13.18;8.18;;;;;;;4.88;59.18;101551.50;4949693;29;20039;-66
2021/03/07 04:11:23;;;;;;;10.30;9.00;;;;;;;4.83;59.37;101553.25;4955197;28;20043;-67
2021/03/07 04:13:56;;;;;;;12.73;9.38;;;;;;;4.79;59.67;101550.72;4954758;28;20047;-66
2021/03/07 04:16:23;;;;;;;9.63;8.63;;;;;;;4.74;59.24;101553.34;4955264;28;20039;-67
2021/03/07 04:18:50;;;;;;;9.35;8.25;;;;;;;4.53;59.83;101554.28;4955013;28;20051;-67
2021/03/07 04:21:17;;;;;;;15.43;8.65;;;;;;;4.62;59.55;101548.22;4954620;28;20031;-67
2021/03/07 04:23:44;;;;;;;13.02;8.40;;;;;;;4.51;60.12;101556.00;4955058;28;20410;-67
2021/03/07 04:26:12;;;;;;;12.93;8.75;;;;;;;4.64;59.79;101552.53;4954411;28;20066;-67
2021/03/07 04:28:40;;;;;;;10.30;9.15;;;;;;;4.69;60.04;101550.78;4954985;28;20077;-66
2021/03/07 04:31:06;;;;;;;12.70;8.98;;;;;;;4.66;59.92;101558.53;4954635;28;20039;-67
2021/03/07 04:33:33;;;;;;;10.93;8.90;;;;;;;4.68;59.69;101556.78;4954483;28;20490;-66
2021/03/07 04:36:02;;;;;;;16.10;9.63;;;;;;;4.70;59.72;101551.63;4954610;28;20055;-66
2021/03/07 04:38:28;;;;;;;10.32;9.32;;;;;;;4.73;59.97;101557.63;4954952;28;20081;-67
2021/03/07 04:40:55;;;;;;;10.50;8.45;;;;;;;4.75;60.33;101559.38;4954595;28;20047;-67
2021/03/07 04:43:21;;;;;;;12.02;10.10;;;;;;;4.64;60.34;101555.09;4954110;28;20130;-67
2021/03/07 04:45:48;;;;;;;14.15;9.85;;;;;;;4.64;60.08;101552.53;4954926;28;20054;-66
2021/03/07 04:48:14;;;;;;;23.10;10.70;;;;;;;4.68;60.05;101554.19;4950137;28;20209;-67
2021/03/07 04:50:41;;;;;;;11.80;9.60;;;;;;;4.70;60.21;101552.50;4948893;28;20047;-66
2021/03/07 04:53:08;;;;;;;11.10;8.68;;;;;;;4.63;60.03;101550.78;4947856;28;20565;-67
2021/03/07 04:55:34;;;;;;;10.73;8.98;;;;;;;4.62;60.15;101543.03;4948086;28;20043;-67
2021/03/07 04:58:00;;;;;;;14.25;8.60;;;;;;;4.53;60.04;101543.97;4947764;28;20070;-66
2021/03/07 05:00:28;;;;;;;11.30;10.15;;;;;;;4.44;60.37;101544.00;4948709;28;20039;-67
2021/03/07 05:02:54;;;;;;;11.68;9.02;;;;;;;4.45;60.20;101541.41;4948080;28;20461;-67
2021/03/07 05:05:20;;;;;;;10.77;8.95;;;;;;;4.39;60.54;101543.16;4948703;28;20035;-67
2021/03/07 05:07:47;;;;;;;25.25;9.30;;;;;;;4.43;60.12;101544.88;4948979;28;20046;-66
2021/03/07 05:10:13;;;;;;;8.45;7.50;;;;;;;4.58;59.80;101539.63;4947867;28;20051;-66
2021/03/07 05:12:39;;;;;;;11.25;8.35;;;;;;;4.63;59.29;101537.88;4948353;28;20078;-67
2021/03/07 05:15:07;;;;;;;11.40;9.93;;;;;;;4.72;58.95;101548.16;4948962;28;20043;-67
2021/03/07 05:17:35;;;;;;;16.10;10.32;;;;;;;4.31;60.68;101552.63;4949061;28;20058;-68
2021/03/07 05:20:03;;;;;;;10.88;9.77;;;;;;;4.14;61.32;101550.09;4947678;28;20044;-68
2021/03/07 05:22:29;;;;;;;15.90;12.10;;;;;;;4.22;61.00;101552.69;4948120;28;20043;-68
2021/03/07 05:24:56;;;;;;;16.40;11.45;;;;;;;4.36;61.03;101550.91;4948218;28;20046;-67
2021/03/07 05:27:22;;;;;;;20.05;13.52;;;;;;;4.44;61.06;101554.31;4947568;28;20051;-67
2021/03/07 05:29:49;;;;;;;15.73;11.15;;;;;;;4.45;61.29;101556.03;4948156;28;20035;-67
2021/03/07 05:32:15;;;;;;;17.10;12.57;;;;;;;4.39;61.31;101554.34;4947854;29;20054;-67
2021/03/07 05:34:42;;;;;;;16.30;12.20;;;;;;;4.35;61.46;101549.19;4949153;28;20043;-67
2021/03/07 05:37:08;;;;;;;20.23;11.52;;;;;;;4.37;61.45;101552.63;4949148;28;20046;-68
2021/03/07 05:39:35;;;;;;;14.98;12.55;;;;;;;4.32;61.43;101549.22;4948022;28;20046;-69
2021/03/07 05:42:02;;;;;;;11.98;10.73;;;;;;;4.36;61.24;101545.72;4947445;28;20106;-67
2021/03/07 05:44:29;;;;;;;13.23;11.48;;;;;;;4.31;61.20;101545.75;4947741;28;20118;-67
2021/03/07 05:46:56;;;;;;;15.50;12.63;;;;;;;4.23;61.56;101544.06;4947801;28;20048;-67
2021/03/07 05:49:22;;;;;;;14.88;12.15;;;;;;;4.27;61.68;101543.22;4947630;28;20401;-67
2021/03/07 05:51:50;;;;;;;15.43;11.82;;;;;;;4.43;61.49;101547.44;4947730;28;20035;-67
2021/03/07 05:54:16;;;;;;;13.93;12.40;;;;;;;4.34;61.47;101542.31;4947119;28;20039;-67
2021/03/07 05:56:47;;;;;;;14.95;12.95;;;;;;;4.35;61.36;101544.03;4947780;28;20394;-67
2021/03/07 05:59:14;;;;;;;13.02;11.70;;;;;;;4.32;61.21;101538.88;4946611;28;20125;-67
2021/03/07 06:01:41;;;;;;;15.55;12.73;;;;;;;4.37;61.30;101532.00;4947785;28;20031;-67
2021/03/07 06:04:08;;;;;;;17.88;13.25;;;;;;;4.43;61.58;101526.78;4948828;28;20047;-67
2021/03/07 06:06:34;;;;;;;14.75;12.30;;;;;;;4.44;61.95;101528.50;4952072;28;20047;-67
2021/03/07 06:09:15;;;;;;;15.43;12.00;;;;;;;4.70;61.16;101528.38;4953629;28;20490;-67
2021/03/07 06:11:42;;;;;;;15.23;11.95;;;;;;;4.70;60.66;101529.25;4958143;28;20043;-77
2021/03/07 06:14:18;;;;;;;14.73;11.70;;;;;;;4.89;61.18;101523.94;4957808;28;20072;-72
2021/03/07 06:17:08;;;;;;;14.35;12.05;;;;;;;5.17;59.58;101524.66;4954536;28;20102;-68
2021/03/07 06:19:57;;;;;;;14.93;11.00;;;;;;;5.39;59.17;101523.59;4955551;29;20083;-68
2021/03/07 06:22:24;;;;;;;14.93;12.98;;;;;;;5.35;59.40;101521.06;4956462;28;20047;-68
2021/03/07 06:24:51;;;;;;;15.27;11.02;;;;;;;5.81;57.75;101518.91;4956345;28;20043;-68
2021/03/07 06:27:18;;;;;;;14.13;11.32;;;;;;;5.98;57.42;101523.94;4956678;28;20066;-68
2021/03/07 06:29:56;;;;;;;17.23;11.60;;;;;;;6.10;56.59;101516.03;4956701;28;20528;-68
2021/03/07 06:32:25;;;;;;;17.42;12.50;;;;;;;6.49;55.70;101516.41;4955498;28;20431;-68
2021/03/07 06:34:53;;;;;;;12.70;11.18;;;;;;;6.99;53.84;101514.88;4956536;28;20069;-69
2021/03/07 06:37:19;;;;;;;16.55;10.57;;;;;;;7.46;51.94;101515.88;4956378;28;20371;-69
2021/03/07 06:39:46;;;;;;;12.10;10.45;;;;;;;7.27;52.91;101518.75;4956375;28;20066;-68
2021/03/07 06:42:15;;;;;;;13.88;11.65;;;;;;;7.46;51.59;101518.47;4956328;28;20049;-68
2021/03/07 06:45:02;;;;;;;12.95;10.77;;;;;;;7.83;51.09;101509.13;4970979;28;20043;-68
2021/03/07 06:47:29;;;;;;;16.70;10.38;;;;;;;7.98;50.19;101517.50;4953675;28;20043;-67
2021/03/07 06:50:11;;;;;;;17.58;12.90;;;;;;;8.12;50.05;101520.69;4956334;28;20095;-68
2021/03/07 06:53:07;;;;;;;18.48;11.60;;;;;;;8.44;48.89;101511.44;4956935;28;20047;-68
2021/03/07 06:55:43;;;;;;;12.82;9.93;;;;;;;8.54;48.68;101507.75;4948938;28;20067;-68
2021/03/07 06:58:16;;;;;;;15.88;10.73;;;;;;;9.01;46.82;101508.44;4956969;28;20039;-68
2021/03/07 07:00:44;;;;;;;16.60;11.57;;;;;;;8.73;48.29;101514.25;4956646;28;20051;-68
2021/03/07 07:03:12;;;;;;;14.02;11.32;;;;;;;9.26;47.58;101514.75;4956839;28;20042;-68
2021/03/07 07:05:44;;;;;;;15.05;10.10;;;;;;;9.52;45.14;101510.66;4956032;28;20043;-68
2021/03/07 07:08:13;;;;;;;14.65;11.80;;;;;;;9.65;45.94;101507.69;4956412;28;20054;-68
2021/03/07 07:10:48;;;;;;;13.35;10.25;;;;;;;10.00;44.99;101505.03;4956372;28;20051;-67
2021/03/07 07:13:15;;;;;;;16.45;11.25;;;;;;;9.89;44.42;101506.19;4955792;28;20043;-68
2021/03/07 07:16:00;;;;;;;15.15;11.45;;;;;;;10.36;44.16;101504.03;4955677;28;20031;-68
2021/03/07 07:18:29;;;;;;;14.30;11.85;;;;;;;10.29;44.85;101506.88;4956369;28;20054;-67
2021/03/07 07:20:57;;;;;;;17.15;11.27;;;;;;;10.45;44.57;101509.00;4955399;28;20383;-67
2021/03/07 07:23:25;;;;;;;13.02;10.38;;;;;;;10.08;45.02;101516.13;4969878;28;20498;-70
2021/03/07 07:25:52;;;;;;;15.35;11.25;;;;;;;9.94;45.83;101511.28;4954806;28;20038;-73
2021/03/07 07:28:20;;;;;;;14.77;9.65;;;;;;;10.68;45.34;101510.06;4953452;29;20126;-69
2021/03/07 07:31:08;;;;;;;15.70;10.48;;;;;;;10.26;45.05;101510.41;4955378;28;20126;-71
2021/03/07 07:34:01;;;;;;;11.10;9.98;;;;;;;11.09;43.39;101514.00;4954713;28;20054;-73
2021/03/07 07:36:40;;;;;;;14.77;10.93;;;;;;;11.62;42.13;101513.97;4954610;28;20135;-74
2021/03/07 07:39:11;;;;;;;17.25;10.10;;;;;;;11.07;43.49;101520.16;4955191;28;20039;-74
2021/03/07 07:41:39;;;;;;;11.80;9.95;;;;;;;11.91;41.56;101515.59;4956149;28;20134;-76
2021/03/07 07:44:09;;;;;;;14.02;10.05;;;;;;;12.09;41.38;101506.25;4955391;28;20051;-68
2021/03/07 07:47:03;;;;;;;14.38;10.65;;;;;;;11.97;41.49;101514.53;4955034;28;20501;-67
2021/03/07 07:49:42;;;;;;;15.07;9.52;;;;;;;12.15;40.39;101500.81;4956870;28;20039;-67
2021/03/07 07:52:21;;;;;;;11.50;9.63;;;;;;;13.19;39.33;101506.38;4959223;28;20073;-67
2021/03/07 07:54:55;;;;;;;15.90;10.63;;;;;;;13.70;38.25;101500.78;4952586;28;20110;-67
2021/03/07 07:57:31;;;;;;;16.83;9.95;;;;;;;13.27;39.04;101502.56;4955552;28;20043;-68
2021/03/07 07:59:58;;;;;;;11.80;10.07;;;;;;;13.20;39.92;101506.31;4955352;28;20118;-67
2021/03/07 08:02:43;;;;;;;17.60;12.15;;;;;;;12.75;40.31;101509.00;4955014;28;20039;-66
2021/03/07 08:05:26;;;;;;;12.18;10.05;;;;;;;12.93;40.29;101507.44;4954310;28;20134;-64
2021/03/07 08:08:04;;;;;;;12.38;10.65;;;;;;;12.96;39.07;101504.69;4954874;28;20047;-64
2021/03/07 08:10:41;;;;;;;11.30;9.90;;;;;;;11.94;41.20;101507.66;4955218;28;20058;-64
2021/03/07 08:13:16;;;;;;;10.75;9.65;;;;;;;12.67;40.02;101505.81;4955246;28;20047;-62
2021/03/07 08:15:43;;;;;;;14.00;9.43;;;;;;;13.24;38.55;101502.69;4949296;28;20513;-66
2021/03/07 08:18:11;;;;;;;12.25;10.43;;;;;;;12.74;39.74;101499.47;4955021;28;20497;-72
2021/03/07 08:20:37;;;;;;;15.45;9.73;;;;;;;13.98;37.57;101497.78;4955437;28;20054;-70
2021/03/07 08:23:08;;;;;;;11.25;8.95;;;;;;;14.65;36.34;101499.16;4954024;28;20047;-70
2021/03/07 08:25:46;;;;;;;12.82;9.60;;;;;;;14.27;36.28;101500.84;4952043;29;20039;-70
2021/03/07 08:28:28;;;;;;;15.70;9.73;;;;;;;15.41;34.00;101492.78;4952830;29;20043;-69
2021/03/07 08:30:55;;;;;;;9.55;8.55;;;;;;;15.55;33.32;101489.44;4954245;28;20070;-71
2021/03/07 08:33:22;;;;;;;10.35;8.05;;;;;;;15.79;32.71;101487.38;4952863;28;20383;-71
2021/03/07 08:36:11;;;;;;;16.45;9.80;;;;;;;15.04;33.49;101493.75;4954147;28;20043;-69
2021/03/07 08:38:52;;;;;;;10.70;8.38;;;;;;;14.98;34.01;101494.06;4951079;28;20453;-70
2021/03/07 08:41:34;;;;;;;12.98;8.98;;;;;;;15.25;34.74;101497.09;4952649;28;20047;-74
2021/03/07 08:44:09;;;;;;;9.98;8.70;;;;;;;16.37;31.71;101491.31;4954032;28;20053;-71
2021/03/07 08:46:38;;;;;;;10.52;8.38;;;;;;;15.95;32.30;101479.53;4952622;28;20043;-72
2021/03/07 08:49:18;;;;;;;11.60;8.65;;;;;;;15.64;32.81;101477.66;4953318;28;20470;-72
2021/03/07 08:51:48;;;;;;;9.52;8.52;;;;;;;15.38;32.24;101477.16;4950034;28;20051;-74
2021/03/07 08:54:20;;;;;;;12.52;8.77;;;;;;;16.30;32.13;101476.78;4953543;28;20628;-76
2021/03/07 08:56:48;;;;;;;13.32;9.07;;;;;;;17.02;31.17;101473.66;4954203;28;20047;-72
2021/03/07 08:59:15;;;;;;;10.40;8.32;;;;;;;16.56;31.23;101473.56;4953106;28;20402;-76
2021/03/07 09:01:42;;;;;;;10.75;8.88;;;;;;;16.60;30.97;101467.19;4952606;28;20051;-80
2021/03/07 09:04:10;;;;;;;10.65;8.70;;;;;;;16.80;31.59;101460.00;4952804;28;20075;-74
2021/03/07 09:06:38;;;;;;;13.90;7.13;;;;;;;16.18;31.22;101452.00;4952252;28;20047;-67
2021/03/07 09:09:10;;;;;;;9.40;7.65;;;;;;;16.60;30.54;101456.66;4952259;28;20046;-69
2021/03/07 09:11:53;;;;;;;9.02;6.88;;;;;;;16.29;29.81;101456.66;4952100;28;20054;-73
2021/03/07 09:14:34;;;;;;;11.43;7.32;;;;;;;15.92;31.14;101445.50;4952072;28;20402;-74
2021/03/07 09:17:04;;;;;;;12.13;8.23;;;;;;;16.31;31.10;101446.91;4951382;28;20422;-69
2021/03/07 09:19:36;;;;;;;10.43;7.72;;;;;;;15.10;33.09;101446.19;4950889;28;20187;-72
2021/03/07 09:22:10;;;;;;;9.80;8.13;;;;;;;14.78;33.70;101449.53;4950610;28;20058;-71
2021/03/07 09:24:37;;;;;;;12.43;7.97;;;;;;;14.75;34.40;101439.16;4953175;28;20067;-69
2021/03/07 09:27:13;;;;;;;10.70;8.75;;;;;;;14.48;34.28;101441.34;4951156;29;20044;-72
2021/03/07 09:29:52;;;;;;;10.40;8.23;;;;;;;13.74;35.40;101446.44;4953434;28;20122;-69
2021/03/07 09:32:45;;;;;;;10.25;7.40;;;;;;;13.98;35.13;101444.50;4952487;28;20074;-68
2021/03/07 09:35:31;;;;;;;9.57;6.45;;;;;;;13.22;36.10;101446.06;4953723;28;20138;-70
2021/03/07 09:38:01;;;;;;;13.25;7.15;;;;;;;13.30;35.25;101446.59;4953321;28;20047;-70
2021/03/07 09:40:38;;;;;;;9.38;6.75;;;;;;;12.91;35.03;101435.97;4953274;28;20411;-69
2021/03/07 09:43:10;;;;;;;10.93;7.03;;;;;;;12.58;35.79;101429.44;4952792;28;20054;-69
2021/03/07 09:45:38;;;;;;;9.50;6.70;;;;;;;12.43;36.56;101427.41;4956466;28;20055;-68
2021/03/07 09:48:20;;;;;;;9.50;7.10;;;;;;;12.33;37.16;101426.06;4955951;28;20039;-70
2021/03/07 09:50:48;;;;;;;10.98;6.45;;;;;;;12.32;36.99;101426.97;4957581;29;20386;-71
2021/03/07 09:53:14;;;;;;;8.70;6.57;;;;;;;11.83;38.20;101413.13;4957393;28;20044;-68
2021/03/07 09:55:41;;;;;;;9.45;6.15;;;;;;;12.03;37.06;101410.63;4957622;28;20107;-70
2021/03/07 09:58:10;;;;;;;7.28;5.78;;;;;;;11.85;35.88;101398.25;4957566;28;20044;-74
2021/03/07 10:00:39;;;;;;;8.25;5.72;;;;;;;11.97;36.54;101396.94;4957049;28;20541;-72
2021/03/07 10:03:22;;;;;;;6.93;6.15;;;;;;;12.17;36.61;101390.97;4956704;28;20458;-71
2021/03/07 10:06:15;;;;;;;9.45;5.13;;;;;;;11.66;36.03;101390.19;4957441;28;20090;-71
2021/03/07 10:08:43;;;;;;;7.63;5.80;;;;;;;11.97;37.26;101387.31;4951417;28;20094;-75
2021/03/07 10:11:11;;;;;;;7.85;4.95;;;;;;;11.88;36.71;101379.84;4957458;28;20051;-73
2021/03/07 10:13:39;;;;;;;8.40;5.47;;;;;;;11.90;36.59;101379.78;4956671;28;20066;-66
2021/03/07 10:16:09;;;;;;;5.45;4.78;;;;;;;12.03;36.48;101379.25;4957263;28;20043;-70
2021/03/07 10:18:38;;;;;;;12.05;5.95;;;;;;;11.69;36.78;101368.34;4956778;28;20517;-69
2021/03/07 10:21:06;;;;;;;12.25;5.85;;;;;;;11.74;37.35;101366.41;4957338;28;20047;-67
2021/03/07 10:23:34;;;;;;;7.72;6.07;;;;;;;11.94;37.13;101363.94;4956131;28;20039;-71
2021/03/07 10:26:00;;;;;;;6.72;5.10;;;;;;;11.46;37.05;101362.19;4957162;28;20047;-70
2021/03/07 10:28:34;;;;;;;6.18;4.85;;;;;;;11.63;36.32;101358.13;4956798;28;20043;-68
2021/03/07 10:31:11;;;;;;;8.23;5.80;;;;;;;11.50;36.28;101358.56;4955618;28;20428;-67
2021/03/07 10:33:39;;;;;;;9.20;5.28;;;;;;;11.34;37.27;101354.78;4956782;28;20125;-68
2021/03/07 10:36:09;;;;;;;6.90;6.13;;;;;;;11.55;35.97;101351.41;4956435;28;20450;-69
2021/03/07 10:38:41;;;;;;;5.88;5.20;;;;;;;11.60;36.16;101342.56;4955639;28;20041;-68
2021/03/07 10:41:30;;;;;;;6.63;5.38;;;;;;;11.67;35.39;101344.91;4956457;28;20098;-69
2021/03/07 10:43:59;;;;;;;5.38;4.60;;;;;;;11.67;35.52;101351.88;4952081;28;20043;-67
2021/03/07 10:46:34;;;;;;;7.25;5.10;;;;;;;11.28;35.91;101349.78;4953317;28;20517;-65
2021/03/07 10:49:21;;;;;;;6.03;4.80;;;;;;;11.30;36.02;101353.22;4955668;28;20117;-64
2021/03/07 10:51:47;;;;;;;7.20;5.22;;;;;;;11.58;36.24;101349.59;4956137;28;20054;-66
2021/03/07 10:54:14;;;;;;;9.85;5.25;;;;;;;11.39;35.64;101342.41;4955998;28;20043;-65
2021/03/07 10:56:41;;;;;;;12.20;5.55;;;;;;;11.41;35.74;101343.22;4955091;28;20494;-65
2021/03/07 10:59:09;;;;;;;6.80;5.13;;;;;;;11.58;36.18;101339.16;4955914;28;20093;-65
2021/03/07 11:01:38;;;;;;;6.22;4.18;;;;;;;11.39;35.32;101339.81;4956006;28;20128;-66
2021/03/07 11:04:05;;;;;;;5.22;4.40;;;;;;;11.46;34.70;101336.09;4955721;28;20067;-66
2021/03/07 11:06:31;;;;;;;6.32;5.25;;;;;;;11.47;34.48;101322.13;4956409;28;20039;-67
2021/03/07 11:08:58;;;;;;;7.63;4.82;;;;;;;11.33;35.08;101321.75;4955646;28;20051;-66
2021/03/07 11:11:24;;;;;;;8.93;5.65;;;;;;;11.24;35.58;101322.13;4956244;28;20047;-65
2021/03/07 11:13:50;;;;;;;6.95;5.53;;;;;;;11.33;35.45;101324.38;4955210;28;20043;-66
2021/03/07 11:16:16;;;;;;;7.32;5.15;;;;;;;11.16;35.06;101314.53;4955057;28;20116;-66
2021/03/07 11:18:43;;;;;;;10.48;5.75;;;;;;;11.24;35.42;101307.31;4946940;28;20047;-67
2021/03/07 11:21:09;;;;;;;10.13;5.25;;;;;;;11.28;34.70;101300.19;4948683;28;20437;-63
2021/03/07 11:23:36;;;;;;;6.97;5.32;;;;;;;11.53;35.23;101298.38;4948246;28;20039;-63
2021/03/07 11:26:03;;;;;;;7.97;5.70;;;;;;;11.43;35.33;101291.81;4947621;28;20486;-65
2021/03/07 11:28:30;;;;;;;6.63;5.32;;;;;;;11.67;35.32;101283.97;4950144;28;20406;-65
2021/03/07 11:30:57;;;;;;;9.52;6.85;;;;;;;11.81;34.57;101281.66;4954510;28;20050;-64
2021/03/07 11:33:23;;;;;;;9.40;6.55;;;;;;;11.88;34.29;101280.56;4952054;28;20074;-64
2021/03/07 11:35:51;;;;;;;7.38;5.10;;;;;;;12.02;35.25;101278.25;4953144;28;20047;-65
2021/03/07 11:38:18;;;;;;;7.43;5.60;;;;;;;11.72;35.78;101264.59;4955685;28;20058;-68
2021/03/07 11:40:44;;;;;;;11.32;5.40;;;;;;;11.96;34.53;101272.41;4955058;28;20094;-67